Terminal Aerodrome Forecast
Issued by NWS

Home | Current Version | Previous Version | Text Only | Print | Product List | Glossary On
Versions: 1 2 3 4 5 6 7 8 9 10 11 12 13 14 15 16 17
000
FTUS43 KIND 231100
TAFHUF
TAF
KHUF 231130Z 2312/2412 12005KT 5SM BR VCTS SCT015 BKN035CB
     FM231400 35009KT P6SM VCSH SCT015 BKN025
     FM231600 36010KT P6SM BKN040
     FM231900 36010KT P6SM SCT040 BKN250=

USA.gov is the U.S. government's official web portal to all federal, state and local government web resources and services.